createdAt,value
2022-10-31T00:00:36.731Z,1017.80
2022-10-31T00:01:37.346Z,1017.83
2022-10-31T00:02:38.017Z,1017.77
2022-10-31T00:03:38.630Z,1017.74
2022-10-31T00:04:39.326Z,1017.79
2022-10-31T00:05:39.881Z,1017.75
2022-10-31T00:06:40.439Z,1017.74
2022-10-31T00:07:40.992Z,1017.75
2022-10-31T00:08:41.552Z,1017.77
2022-10-31T00:09:42.133Z,1017.76
2022-10-31T00:10:42.684Z,1017.74
2022-10-31T00:11:43.235Z,1017.72
2022-10-31T00:12:43.778Z,1017.74
2022-10-31T00:13:44.329Z,1017.76
2022-10-31T00:14:44.996Z,1017.73
2022-10-31T00:15:45.558Z,1017.72
2022-10-31T00:16:46.112Z,1017.72
2022-10-31T00:17:46.675Z,1017.72
2022-10-31T00:18:47.275Z,1017.73
2022-10-31T00:19:47.859Z,1017.73
2022-10-31T00:20:48.421Z,1017.75
2022-10-31T00:21:48.969Z,1017.73
2022-10-31T00:22:49.525Z,1017.72
2022-10-31T00:23:50.082Z,1017.72
2022-10-31T00:24:50.659Z,1017.70
2022-10-31T00:25:51.237Z,1017.70
2022-10-31T00:26:51.781Z,1017.67
2022-10-31T00:27:52.333Z,1017.69
2022-10-31T00:28:53.017Z,1017.69
2022-10-31T00:29:53.603Z,1017.69
2022-10-31T00:30:54.154Z,1017.68
2022-10-31T00:31:54.714Z,1017.68
2022-10-31T00:32:55.267Z,1017.70
2022-10-31T00:33:55.851Z,1017.70
2022-10-31T00:34:56.488Z,1017.70
2022-10-31T00:35:57.052Z,1017.73
2022-10-31T00:36:57.605Z,1017.70
2022-10-31T00:37:58.184Z,1017.70
2022-10-31T00:38:58.757Z,1017.71
2022-10-31T00:39:59.384Z,1017.72
2022-10-31T00:40:59.955Z,1017.71
2022-10-31T00:42:00.504Z,1017.69
2022-10-31T00:43:01.472Z,1017.68
2022-10-31T00:44:01.926Z,1017.68
2022-10-31T00:45:02.570Z,1017.69
2022-10-31T00:46:03.126Z,1017.69
2022-10-31T00:47:03.677Z,1017.69
2022-10-31T00:48:04.226Z,1017.69
2022-10-31T00:49:04.807Z,1017.70
2022-10-31T00:50:05.453Z,1017.69
2022-10-31T00:51:06.007Z,1017.70
2022-10-31T00:52:06.561Z,1017.69
2022-10-31T00:53:07.130Z,1017.64
2022-10-31T00:54:07.702Z,1017.67
2022-10-31T00:55:08.283Z,1017.65
2022-10-31T00:56:08.828Z,1017.64
2022-10-31T00:57:09.395Z,1017.65
2022-10-31T00:58:10.003Z,1017.64
2022-10-31T00:59:10.581Z,1017.66
2022-10-31T01:00:11.160Z,1017.65
2022-10-31T01:01:11.857Z,1017.66
2022-10-31T01:02:12.721Z,1017.64
2022-10-31T01:03:13.421Z,1017.65
2022-10-31T01:04:13.998Z,1017.66
2022-10-31T01:05:14.649Z,1017.66
2022-10-31T01:06:15.200Z,1017.65
2022-10-31T01:07:15.766Z,1017.64
2022-10-31T01:08:16.321Z,1017.62
2022-10-31T01:09:16.875Z,1017.61
2022-10-31T01:10:17.523Z,1017.60
2022-10-31T01:11:18.078Z,1017.61
2022-10-31T01:12:18.635Z,1017.60
2022-10-31T01:13:19.247Z,1017.62
2022-10-31T01:14:19.826Z,1017.63
2022-10-31T01:15:20.421Z,1017.61
2022-10-31T01:16:20.980Z,1017.61
2022-10-31T01:17:21.530Z,1017.60
2022-10-31T01:18:22.098Z,1017.59
2022-10-31T01:19:22.678Z,1017.59
2022-10-31T01:20:23.270Z,1017.59
2022-10-31T01:21:23.816Z,1017.59
2022-10-31T01:22:24.360Z,1017.62
2022-10-31T01:23:24.904Z,1017.60
2022-10-31T01:24:25.464Z,1017.60
2022-10-31T01:25:26.060Z,1017.62
2022-10-31T01:26:26.611Z,1017.60
2022-10-31T01:27:27.159Z,1017.59
2022-10-31T01:28:27.730Z,1017.60
2022-10-31T01:29:28.296Z,1017.56
2022-10-31T01:30:28.883Z,1017.56
2022-10-31T01:31:29.439Z,1017.55
2022-10-31T01:32:29.992Z,1017.54
2022-10-31T01:33:30.560Z,1017.53
2022-10-31T01:34:31.139Z,1017.53
2022-10-31T01:35:31.745Z,1017.54
2022-10-31T01:36:32.299Z,1017.56
2022-10-31T01:37:32.876Z,1017.53
2022-10-31T01:38:33.423Z,1017.54
2022-10-31T01:39:33.983Z,1017.54
2022-10-31T01:40:34.683Z,1017.53
2022-10-31T01:41:35.252Z,1017.51
2022-10-31T01:42:35.821Z,1017.50
2022-10-31T01:43:36.379Z,1017.49
2022-10-31T01:44:36.934Z,1017.48
2022-10-31T01:45:37.554Z,1017.48
2022-10-31T01:46:38.118Z,1017.49
2022-10-31T01:47:38.669Z,1017.48
2022-10-31T01:48:39.220Z,1017.51
2022-10-31T01:49:39.792Z,1017.50
2022-10-31T01:50:40.432Z,1017.51
2022-10-31T01:51:40.982Z,1017.51
2022-10-31T01:52:41.548Z,1017.50
2022-10-31T01:53:42.122Z,1017.50
2022-10-31T01:54:42.678Z,1017.49
2022-10-31T01:55:43.256Z,1017.51
2022-10-31T01:56:43.813Z,1017.49
2022-10-31T01:57:44.360Z,1017.47
2022-10-31T01:58:44.906Z,1017.48
2022-10-31T01:59:45.469Z,1017.46
2022-10-31T02:00:46.171Z,1017.45
2022-10-31T02:01:47.058Z,1017.45
2022-10-31T02:02:47.764Z,1017.44
2022-10-31T02:03:48.348Z,1017.45
2022-10-31T02:04:48.936Z,1017.43
2022-10-31T02:05:49.661Z,1017.44
2022-10-31T02:06:50.217Z,1017.43
2022-10-31T02:07:50.774Z,1017.43
2022-10-31T02:08:51.327Z,1017.43
2022-10-31T02:09:51.875Z,1017.44
2022-10-31T02:10:52.461Z,1017.42
2022-10-31T02:11:53.013Z,1017.43
2022-10-31T02:12:53.559Z,1017.44
2022-10-31T02:13:54.121Z,1017.45
2022-10-31T02:14:54.683Z,1017.45
2022-10-31T02:15:55.348Z,1017.46
2022-10-31T02:16:55.898Z,1017.46
2022-10-31T02:17:56.616Z,1017.46
2022-10-31T02:18:57.268Z,1017.49
2022-10-31T02:19:57.838Z,1017.49
2022-10-31T02:20:58.425Z,1017.51
2022-10-31T02:21:58.979Z,1017.52
2022-10-31T02:22:59.557Z,1017.52
2022-10-31T02:24:00.112Z,1017.52
2022-10-31T02:25:00.680Z,1017.51
2022-10-31T02:26:01.346Z,1017.50
2022-10-31T02:27:01.897Z,1017.52
2022-10-31T02:28:02.970Z,1017.54
2022-10-31T02:29:03.378Z,1017.50
2022-10-31T02:30:03.943Z,1017.51
2022-10-31T02:31:04.557Z,1017.50
2022-10-31T02:32:05.109Z,1017.51
2022-10-31T02:33:05.666Z,1017.51
2022-10-31T02:34:06.221Z,1017.53
2022-10-31T02:35:06.806Z,1017.54
2022-10-31T02:36:07.411Z,1017.50
2022-10-31T02:37:07.963Z,1017.55
2022-10-31T02:38:08.509Z,1017.52
2022-10-31T02:39:09.069Z,1017.51
2022-10-31T02:40:09.632Z,1017.50
2022-10-31T02:41:10.307Z,1017.49
2022-10-31T02:42:10.858Z,1017.49
2022-10-31T02:43:11.489Z,1017.47
2022-10-31T02:44:12.087Z,1017.49
2022-10-31T02:45:12.661Z,1017.48
2022-10-31T02:46:13.260Z,1017.49
2022-10-31T02:47:13.810Z,1017.49
2022-10-31T02:48:14.375Z,1017.51
2022-10-31T02:49:14.941Z,1017.49
2022-10-31T02:50:15.527Z,1017.48
2022-10-31T02:51:16.223Z,1017.53
2022-10-31T02:52:16.781Z,1017.51
2022-10-31T02:53:17.335Z,1017.56
2022-10-31T02:54:17.888Z,1017.54
2022-10-31T02:55:18.447Z,1017.58
2022-10-31T02:56:19.071Z,1017.56
2022-10-31T02:57:19.637Z,1017.54
2022-10-31T02:59:19.733Z,1017.52
2022-10-31T03:00:21.280Z,1017.51
2022-10-31T03:01:22.035Z,1017.53
2022-10-31T03:02:22.772Z,1017.51
2022-10-31T03:03:23.396Z,1017.54
2022-10-31T03:04:23.957Z,1017.51
2022-10-31T03:05:24.530Z,1017.51
2022-10-31T03:06:25.139Z,1017.51
2022-10-31T03:07:25.690Z,1017.50
2022-10-31T03:08:26.243Z,1017.52
2022-10-31T03:09:26.801Z,1017.49
2022-10-31T03:10:27.356Z,1017.48
2022-10-31T03:11:28.065Z,1017.46
2022-10-31T03:12:28.618Z,1017.46
2022-10-31T03:13:29.170Z,1017.46
2022-10-31T03:14:29.724Z,1017.50
2022-10-31T03:15:30.272Z,1017.47
2022-10-31T03:16:30.855Z,1017.47
2022-10-31T03:17:31.401Z,1017.47
2022-10-31T03:18:31.948Z,1017.51
2022-10-31T03:19:32.502Z,1017.50
2022-10-31T03:20:33.088Z,1017.52
2022-10-31T03:21:33.697Z,1017.53
2022-10-31T03:22:34.254Z,1017.59
2022-10-31T03:23:34.803Z,1017.58
2022-10-31T03:24:35.349Z,1017.56
2022-10-31T03:25:35.906Z,1017.55
2022-10-31T03:26:36.487Z,1017.57
2022-10-31T03:27:37.037Z,1017.56
2022-10-31T03:28:37.593Z,1017.56
2022-10-31T03:29:38.177Z,1017.60
2022-10-31T03:30:38.736Z,1017.59
2022-10-31T03:31:39.329Z,1017.59
2022-10-31T03:32:39.885Z,1017.60
2022-10-31T03:33:40.433Z,1017.59
2022-10-31T03:34:40.988Z,1017.60
2022-10-31T03:35:41.566Z,1017.59
2022-10-31T03:36:42.174Z,1017.58
2022-10-31T03:37:42.737Z,1017.59
2022-10-31T03:38:43.288Z,1017.58
2022-10-31T03:39:43.835Z,1017.58
2022-10-31T03:40:44.384Z,1017.59
2022-10-31T03:41:45.099Z,1017.61
2022-10-31T03:42:45.664Z,1017.62
2022-10-31T03:43:46.221Z,1017.66
2022-10-31T03:44:46.781Z,1017.65
2022-10-31T03:45:47.332Z,1017.66
2022-10-31T03:46:47.909Z,1017.67
2022-10-31T03:47:48.462Z,1017.63
2022-10-31T03:48:49.016Z,1017.65
2022-10-31T03:49:49.570Z,1017.68
2022-10-31T03:50:50.153Z,1017.68
2022-10-31T03:51:51.412Z,1017.66
2022-10-31T03:52:51.461Z,1017.65
2022-10-31T03:53:52.012Z,1017.65
2022-10-31T03:54:52.571Z,1017.66
2022-10-31T03:55:53.128Z,1017.66
2022-10-31T03:56:53.711Z,1017.66
2022-10-31T03:57:54.264Z,1017.68
2022-10-31T03:58:54.813Z,1017.66
2022-10-31T03:59:55.367Z,1017.69
2022-10-31T04:00:56.060Z,1017.69
2022-10-31T04:01:56.880Z,1017.71
2022-10-31T04:02:57.976Z,1017.71
2022-10-31T04:03:58.277Z,1017.71
2022-10-31T04:04:58.830Z,1017.69
2022-10-31T04:05:59.411Z,1017.70
2022-10-31T04:07:00.079Z,1017.69
2022-10-31T04:08:00.636Z,1017.70
2022-10-31T04:09:01.221Z,1017.69
2022-10-31T04:10:01.775Z,1017.67
2022-10-31T04:11:02.324Z,1017.70
2022-10-31T04:12:02.927Z,1017.69
2022-10-31T04:13:03.764Z,1017.73
2022-10-31T04:14:04.472Z,1017.73
2022-10-31T04:15:05.029Z,1017.77
2022-10-31T04:16:05.590Z,1017.77
2022-10-31T04:17:06.166Z,1017.78
2022-10-31T04:18:06.720Z,1017.79
2022-10-31T04:19:07.233Z,1017.79
2022-10-31T04:20:07.780Z,1017.77
2022-10-31T04:21:08.367Z,1017.78
2022-10-31T04:22:21.967Z,1017.81
2022-10-31T04:23:13.809Z,1017.80
2022-10-31T04:24:10.784Z,1017.79
2022-10-31T04:25:11.337Z,1017.80
2022-10-31T04:26:11.853Z,1017.79
2022-10-31T04:27:12.387Z,1017.79
2022-10-31T04:28:12.964Z,1017.78
2022-10-31T04:29:13.504Z,1017.78
2022-10-31T04:30:14.020Z,1017.78
2022-10-31T04:31:14.529Z,1017.77
2022-10-31T04:32:15.058Z,1017.78
2022-10-31T04:33:15.554Z,1017.74
2022-10-31T04:34:16.552Z,1017.75
2022-10-31T04:35:17.049Z,1017.74
2022-10-31T04:36:17.576Z,1017.76
2022-10-31T04:37:18.135Z,1017.75
2022-10-31T04:38:18.649Z,1017.79
2022-10-31T04:39:22.776Z,1017.82
2022-10-31T04:40:20.004Z,1017.78
2022-10-31T04:41:20.499Z,1017.83
2022-10-31T04:42:21.089Z,1017.84
2022-10-31T04:43:21.648Z,1017.80
2022-10-31T04:44:22.145Z,1017.81
2022-10-31T04:45:22.653Z,1017.84
2022-10-31T04:46:23.161Z,1017.84
2022-10-31T04:47:23.691Z,1017.86
2022-10-31T04:48:24.192Z,1017.86
2022-10-31T04:49:24.697Z,1017.86
2022-10-31T04:50:25.202Z,1017.84
2022-10-31T04:51:25.727Z,1017.85
2022-10-31T04:52:26.308Z,1017.85
2022-10-31T04:53:26.810Z,1017.85
2022-10-31T04:54:27.310Z,1017.83
2022-10-31T04:55:27.816Z,1017.84
2022-10-31T04:56:28.324Z,1017.84
2022-10-31T04:57:28.933Z,1017.86
2022-10-31T04:58:29.427Z,1017.87
2022-10-31T04:59:29.933Z,1017.87
2022-10-31T05:00:30.420Z,1017.88
2022-10-31T05:01:31.083Z,1017.88
2022-10-31T05:02:31.779Z,1017.90
2022-10-31T05:03:32.314Z,1017.92
2022-10-31T05:04:32.833Z,1017.91
2022-10-31T05:05:33.332Z,1017.92
2022-10-31T05:06:33.855Z,1017.94
2022-10-31T05:07:34.420Z,1017.95
2022-10-31T05:08:34.942Z,1017.95
2022-10-31T05:09:35.466Z,1017.95
2022-10-31T05:10:35.960Z,1017.96
2022-10-31T05:11:36.455Z,1017.94
2022-10-31T05:12:37.134Z,1017.96
2022-10-31T05:13:37.628Z,1017.96
2022-10-31T05:14:38.125Z,1017.96
2022-10-31T05:15:38.644Z,1017.95
2022-10-31T05:16:39.140Z,1017.96
2022-10-31T05:17:39.676Z,1017.98
2022-10-31T05:18:40.182Z,1017.99
2022-10-31T05:19:40.684Z,1017.97
2022-10-31T05:20:41.207Z,1017.97
2022-10-31T05:21:41.734Z,1018.01
2022-10-31T05:22:42.259Z,1018.03
2022-10-31T05:23:45.932Z,1018.07
2022-10-31T05:24:43.620Z,1018.04
2022-10-31T05:25:44.140Z,1018.07
2022-10-31T05:26:44.640Z,1018.06
2022-10-31T05:27:45.187Z,1018.09
2022-10-31T05:28:45.681Z,1018.09
2022-10-31T05:29:46.302Z,1018.11
2022-10-31T05:30:46.874Z,1018.07
2022-10-31T05:31:47.378Z,1018.12
2022-10-31T05:32:47.930Z,1018.10
2022-10-31T05:33:48.462Z,1018.13
2022-10-31T05:34:48.962Z,1018.13
2022-10-31T05:35:49.492Z,1018.13
2022-10-31T05:36:50.022Z,1018.15
2022-10-31T05:37:50.546Z,1018.16
2022-10-31T05:38:51.050Z,1018.14
2022-10-31T05:39:51.554Z,1018.18
2022-10-31T05:40:52.055Z,1018.17
2022-10-31T05:41:52.546Z,1018.17
2022-10-31T05:42:53.513Z,1018.21
2022-10-31T05:43:54.078Z,1018.19
2022-10-31T05:44:54.604Z,1018.21
2022-10-31T05:45:55.125Z,1018.22
2022-10-31T05:46:59.999Z,1018.26
2022-10-31T05:47:57.600Z,1018.24
2022-10-31T05:49:02.523Z,1018.26
2022-10-31T05:49:58.321Z,1018.28
2022-10-31T05:50:58.829Z,1018.31
2022-10-31T05:52:02.765Z,1018.33
2022-10-31T05:53:00.023Z,1018.29
2022-10-31T05:54:00.540Z,1018.31
2022-10-31T05:55:09.456Z,1018.33
2022-10-31T05:56:03.094Z,1018.32
2022-10-31T05:57:10.038Z,1018.34
2022-10-31T05:58:03.603Z,1018.35
2022-10-31T05:59:06.243Z,1018.37
2022-10-31T06:00:05.768Z,1018.38
2022-10-31T06:01:05.826Z,1018.38
2022-10-31T06:02:06.252Z,1018.38
2022-10-31T06:04:06.450Z,1018.40
2022-10-31T06:05:20.789Z,1018.42
2022-10-31T06:06:15.966Z,1018.41
2022-10-31T06:07:09.708Z,1018.41
2022-10-31T06:08:26.558Z,1018.39
2022-10-31T06:09:11.077Z,1018.37
2022-10-31T06:10:11.833Z,1018.39
2022-10-31T06:11:12.600Z,1018.37
2022-10-31T06:17:41.555Z,1018.33
2022-10-31T06:18:41.102Z,1018.35
2022-10-31T06:19:41.669Z,1018.36
2022-10-31T06:20:42.223Z,1018.35
2022-10-31T06:21:54.803Z,1018.37
2022-10-31T06:22:44.840Z,1018.36
2022-10-31T06:23:43.763Z,1018.37
2022-10-31T06:25:07.733Z,1018.41
2022-10-31T06:25:47.689Z,1018.43
2022-10-31T06:26:46.747Z,1018.42
2022-10-31T06:27:47.255Z,1018.44
2022-10-31T06:28:47.909Z,1018.45
2022-10-31T06:29:48.417Z,1018.46
2022-10-31T06:30:48.980Z,1018.46
2022-10-31T06:31:49.523Z,1018.47
2022-10-31T06:32:50.077Z,1018.49
2022-10-31T06:33:50.607Z,1018.48
2022-10-31T06:34:51.151Z,1018.49
2022-10-31T06:35:51.649Z,1018.49
2022-10-31T06:36:52.152Z,1018.50
2022-10-31T06:37:52.738Z,1018.51
2022-10-31T06:38:53.465Z,1018.51
2022-10-31T06:39:54.061Z,1018.51
2022-10-31T06:40:55.099Z,1018.50
2022-10-31T06:41:55.415Z,1018.52
2022-10-31T06:42:55.935Z,1018.49
2022-10-31T06:43:56.440Z,1018.48
2022-10-31T06:44:57.277Z,1018.51
2022-10-31T06:45:57.800Z,1018.51
2022-10-31T06:46:58.312Z,1018.49
2022-10-31T06:48:22.921Z,1018.49
2022-10-31T06:48:59.731Z,1018.50
2022-10-31T06:50:00.281Z,1018.51
2022-10-31T06:51:00.794Z,1018.50
2022-10-31T06:52:01.306Z,1018.52
2022-10-31T06:53:01.888Z,1018.51
2022-10-31T06:54:02.426Z,1018.52
2022-10-31T06:55:03.024Z,1018.52
2022-10-31T06:56:03.571Z,1018.51
2022-10-31T06:57:04.083Z,1018.50
2022-10-31T06:58:05.352Z,1018.52
2022-10-31T06:59:05.152Z,1018.51
2022-10-31T07:00:05.705Z,1018.48
2022-10-31T07:01:06.346Z,1018.48
2022-10-31T07:02:07.083Z,1018.47
2022-10-31T07:03:08.438Z,1018.46
2022-10-31T07:04:10.329Z,1018.46
2022-10-31T07:05:09.054Z,1018.46
2022-10-31T07:06:13.087Z,1018.44
2022-10-31T07:07:10.226Z,1018.44
2022-10-31T07:08:12.666Z,1018.44
2022-10-31T07:09:11.705Z,1018.44
2022-10-31T07:11:11.808Z,1018.44
2022-10-31T07:12:13.763Z,1018.45
2022-10-31T07:13:14.303Z,1018.47
2022-10-31T07:14:14.816Z,1018.45
2022-10-31T07:15:15.349Z,1018.47
2022-10-31T07:16:15.854Z,1018.49
2022-10-31T07:17:17.111Z,1018.51
2022-10-31T07:18:17.161Z,1018.49
2022-10-31T07:19:17.665Z,1018.52
2022-10-31T07:20:18.275Z,1018.51
2022-10-31T07:21:18.817Z,1018.49
2022-10-31T07:22:20.235Z,1018.49
2022-10-31T07:23:19.868Z,1018.51
2022-10-31T07:24:20.362Z,1018.50
2022-10-31T07:25:20.928Z,1018.49
2022-10-31T07:26:21.478Z,1018.50
2022-10-31T07:27:22.002Z,1018.50
2022-10-31T07:28:22.668Z,1018.49
2022-10-31T07:29:23.178Z,1018.50
2022-10-31T07:30:23.712Z,1018.49
2022-10-31T07:31:24.225Z,1018.48
2022-10-31T07:32:24.728Z,1018.48
2022-10-31T07:33:25.233Z,1018.47
2022-10-31T07:34:25.727Z,1018.46
2022-10-31T07:35:26.266Z,1018.46
2022-10-31T07:36:26.770Z,1018.47
2022-10-31T07:37:28.136Z,1018.48
2022-10-31T07:38:28.162Z,1018.49
2022-10-31T07:39:28.668Z,1018.49
2022-10-31T07:40:29.214Z,1018.49
2022-10-31T07:41:29.738Z,1018.50
2022-10-31T07:42:30.301Z,1018.49
2022-10-31T07:43:30.799Z,1018.49
2022-10-31T07:44:31.311Z,1018.49
2022-10-31T07:45:31.898Z,1018.48
2022-10-31T07:46:32.397Z,1018.48
2022-10-31T07:47:32.899Z,1018.49
2022-10-31T07:48:33.419Z,1018.50
2022-10-31T07:49:33.928Z,1018.51
2022-10-31T07:50:34.478Z,1018.53
2022-10-31T07:51:34.990Z,1018.54
2022-10-31T07:52:36.724Z,1018.55
2022-10-31T07:53:36.249Z,1018.57
2022-10-31T07:54:37.203Z,1018.58
2022-10-31T07:55:37.910Z,1018.59
2022-10-31T07:56:50.527Z,1018.60
2022-10-31T07:57:39.247Z,1018.61
2022-10-31T07:58:39.744Z,1018.62
2022-10-31T07:59:40.245Z,1018.63
2022-10-31T08:00:41.029Z,1018.64
2022-10-31T08:01:41.740Z,1018.65
2022-10-31T08:02:42.241Z,1018.65
2022-10-31T08:03:43.575Z,1018.64
2022-10-31T08:04:43.632Z,1018.63
2022-10-31T08:05:44.255Z,1018.62
2022-10-31T08:06:44.958Z,1018.61
2022-10-31T08:07:45.502Z,1018.61
2022-10-31T08:08:46.463Z,1018.62
2022-10-31T08:09:49.797Z,1018.61
2022-10-31T08:10:47.369Z,1018.61
2022-10-31T08:11:46.876Z,1018.61
2022-10-31T08:12:48.377Z,1018.61
2022-10-31T08:13:48.877Z,1018.61
2022-10-31T08:14:49.380Z,1018.61
2022-10-31T08:15:49.926Z,1018.59
2022-10-31T08:16:51.329Z,1018.59
2022-10-31T08:17:51.568Z,1018.61
2022-10-31T08:18:52.078Z,1018.61
2022-10-31T08:19:52.598Z,1018.61
2022-10-31T08:20:53.411Z,1018.62
2022-10-31T08:21:53.875Z,1018.62
2022-10-31T08:22:54.373Z,1018.63
2022-10-31T08:23:54.904Z,1018.65
2022-10-31T08:24:55.452Z,1018.66
2022-10-31T08:25:56.389Z,1018.68
2022-10-31T08:26:56.939Z,1018.70
2022-10-31T08:28:06.423Z,1018.71
2022-10-31T08:28:58.258Z,1018.73
2022-10-31T08:29:58.799Z,1018.73
2022-10-31T08:30:59.362Z,1018.72
2022-10-31T08:31:59.926Z,1018.72
2022-10-31T08:33:00.467Z,1018.72
2022-10-31T08:34:01.465Z,1018.72
2022-10-31T08:35:01.971Z,1018.73
2022-10-31T08:36:02.515Z,1018.73
2022-10-31T08:37:03.016Z,1018.74
2022-10-31T08:38:04.047Z,1018.75
2022-10-31T08:39:04.381Z,1018.77
2022-10-31T08:40:04.878Z,1018.78
2022-10-31T08:41:05.544Z,1018.78
2022-10-31T08:42:06.044Z,1018.80
2022-10-31T08:43:06.597Z,1018.81
2022-10-31T08:44:07.491Z,1018.82
2022-10-31T08:45:07.845Z,1018.82
2022-10-31T08:46:13.973Z,1018.82
2022-10-31T08:49:40.181Z,1018.79
2022-10-31T08:50:01.770Z,1018.77
2022-10-31T08:51:00.736Z,1018.75
2022-10-31T08:52:01.563Z,1018.74
2022-10-31T08:53:06.317Z,1018.73
2022-10-31T08:54:05.049Z,1018.72
2022-10-31T08:55:03.938Z,1018.70
2022-10-31T08:56:04.483Z,1018.68
2022-10-31T08:57:05.084Z,1018.66
2022-10-31T08:58:05.585Z,1018.65
2022-10-31T08:59:06.092Z,1018.63
2022-10-31T09:00:26.407Z,1018.64
2022-10-31T09:01:07.666Z,1018.63
2022-10-31T09:02:10.231Z,1018.63
2022-10-31T09:03:08.824Z,1018.62
2022-10-31T09:04:09.336Z,1018.61
2022-10-31T09:05:09.826Z,1018.62
2022-10-31T09:06:10.510Z,1018.61
2022-10-31T09:07:26.592Z,1018.60
2022-10-31T09:08:16.244Z,1018.58
2022-10-31T09:09:12.830Z,1018.57
2022-10-31T09:10:13.372Z,1018.57
2022-10-31T09:11:13.883Z,1018.57
2022-10-31T09:12:14.527Z,1018.56
2022-10-31T09:13:15.090Z,1018.55
2022-10-31T09:14:15.607Z,1018.53
2022-10-31T09:15:16.962Z,1018.52
2022-10-31T09:16:46.204Z,1018.51
2022-10-31T09:17:36.812Z,1018.50
2022-10-31T09:18:22.212Z,1018.50
2022-10-31T09:19:19.410Z,1018.51
2022-10-31T09:20:19.936Z,1018.50
2022-10-31T09:21:20.446Z,1018.51
2022-10-31T09:22:20.963Z,1018.49
2022-10-31T09:23:22.610Z,1018.49
2022-10-31T09:24:22.256Z,1018.48
2022-10-31T09:25:26.025Z,1018.49
2022-10-31T09:26:35.337Z,1018.48
2022-10-31T09:27:24.889Z,1018.46
2022-10-31T09:28:26.079Z,1018.47
2022-10-31T09:29:26.085Z,1018.45
2022-10-31T09:30:26.584Z,1018.45
2022-10-31T09:31:27.865Z,1018.43
2022-10-31T09:32:27.926Z,1018.44
2022-10-31T09:33:28.423Z,1018.44
2022-10-31T09:34:28.934Z,1018.44
2022-10-31T09:35:29.433Z,1018.42
2022-10-31T09:36:30.279Z,1018.41
2022-10-31T09:37:30.819Z,1018.40
2022-10-31T09:38:31.451Z,1018.38
2022-10-31T09:39:31.996Z,1018.37
2022-10-31T09:40:32.535Z,1018.35
2022-10-31T09:41:33.038Z,1018.35
2022-10-31T09:42:33.626Z,1018.33
2022-10-31T09:43:34.207Z,1018.32
2022-10-31T09:44:34.717Z,1018.31
2022-10-31T09:45:35.228Z,1018.31
2022-10-31T09:46:35.738Z,1018.31
2022-10-31T09:47:36.330Z,1018.32
2022-10-31T09:48:36.835Z,1018.31
2022-10-31T09:49:37.379Z,1018.29
2022-10-31T09:50:37.898Z,1018.28
2022-10-31T09:51:38.905Z,1018.27
2022-10-31T09:52:39.448Z,1018.26
2022-10-31T09:53:39.954Z,1018.25
2022-10-31T09:54:40.450Z,1018.24
2022-10-31T09:55:41.007Z,1018.24
2022-10-31T09:56:41.567Z,1018.23
2022-10-31T09:57:42.213Z,1018.21
2022-10-31T09:58:42.719Z,1018.21
2022-10-31T09:59:43.224Z,1018.20
2022-10-31T10:00:44.021Z,1018.19
2022-10-31T10:01:44.697Z,1018.18
2022-10-31T10:02:45.684Z,1018.15
2022-10-31T10:03:46.414Z,1018.14
2022-10-31T10:04:46.910Z,1018.13
2022-10-31T10:05:47.402Z,1018.12
2022-10-31T10:06:48.086Z,1018.10
2022-10-31T10:07:48.967Z,1018.09
2022-10-31T10:08:49.553Z,1018.09
2022-10-31T10:09:50.064Z,1018.10
2022-10-31T10:10:50.608Z,1018.09
2022-10-31T10:11:52.754Z,1018.09
2022-10-31T10:12:51.884Z,1018.09
2022-10-31T10:13:52.386Z,1018.10
2022-10-31T10:14:53.612Z,1018.11
2022-10-31T10:15:53.699Z,1018.11
2022-10-31T10:16:54.227Z,1018.12
2022-10-31T10:17:54.774Z,1018.13
2022-10-31T10:18:55.522Z,1018.13
2022-10-31T10:19:56.064Z,1018.13
2022-10-31T10:20:56.571Z,1018.12
2022-10-31T10:21:57.099Z,1018.11
2022-10-31T10:22:57.923Z,1018.11
2022-10-31T10:23:58.615Z,1018.10
2022-10-31T10:25:01.381Z,1018.10
2022-10-31T10:26:00.004Z,1018.09
2022-10-31T10:27:00.500Z,1018.08
2022-10-31T10:28:01.396Z,1018.08
2022-10-31T10:29:01.602Z,1018.06
2022-10-31T10:30:02.104Z,1018.05
2022-10-31T10:31:02.600Z,1018.04
2022-10-31T10:32:03.274Z,1018.03
2022-10-31T10:33:03.826Z,1018.03
2022-10-31T10:34:04.347Z,1018.03
2022-10-31T10:35:04.853Z,1018.02
2022-10-31T10:36:05.749Z,1018.01
2022-10-31T10:37:06.283Z,1017.99
2022-10-31T10:38:06.836Z,1017.98
2022-10-31T10:39:07.374Z,1017.96
2022-10-31T10:40:07.892Z,1017.94
2022-10-31T10:41:08.426Z,1017.92
2022-10-31T10:42:30.662Z,1017.92
2022-10-31T10:43:09.487Z,1017.91
2022-10-31T10:44:10.008Z,1017.91
2022-10-31T10:45:10.522Z,1017.91
2022-10-31T10:46:12.039Z,1017.91
2022-10-31T10:47:13.333Z,1017.91
2022-10-31T10:48:12.966Z,1017.91
2022-10-31T10:49:13.486Z,1017.90
2022-10-31T10:50:13.989Z,1017.89
2022-10-31T10:51:25.653Z,1017.89
2022-10-31T10:53:16.312Z,1017.88
2022-10-31T10:54:16.864Z,1017.88
2022-10-31T10:55:17.366Z,1017.87
2022-10-31T10:56:17.979Z,1017.87
2022-10-31T10:57:24.137Z,1017.88
2022-10-31T10:58:19.447Z,1017.88
2022-10-31T10:59:19.945Z,1017.90
2022-10-31T11:00:21.670Z,1017.90
2022-10-31T11:01:21.157Z,1017.91
2022-10-31T11:02:21.671Z,1017.91
2022-10-31T11:03:22.315Z,1017.92
2022-10-31T11:04:22.867Z,1017.91
2022-10-31T11:05:23.362Z,1017.91
2022-10-31T11:06:23.869Z,1017.90
2022-10-31T11:07:24.363Z,1017.90
2022-10-31T11:08:27.407Z,1017.88
2022-10-31T11:09:25.770Z,1017.87
2022-10-31T11:10:26.296Z,1017.86
2022-10-31T11:11:26.827Z,1017.85
2022-10-31T11:12:27.362Z,1017.85
2022-10-31T11:13:27.889Z,1017.85
2022-10-31T11:14:35.764Z,1017.84
2022-10-31T11:15:29.639Z,1017.84
2022-10-31T11:17:00.191Z,1017.82
2022-10-31T11:17:32.694Z,1017.82
2022-10-31T11:18:31.352Z,1017.80
2022-10-31T11:19:32.235Z,1017.79
2022-10-31T11:20:32.626Z,1017.78
2022-10-31T11:21:33.522Z,1017.77
2022-10-31T11:22:34.026Z,1017.76
2022-10-31T11:23:34.857Z,1017.77
2022-10-31T11:24:35.405Z,1017.76
2022-10-31T11:25:36.247Z,1017.76
2022-10-31T11:26:36.514Z,1017.76
2022-10-31T11:27:37.018Z,1017.76
2022-10-31T11:28:37.547Z,1017.76
2022-10-31T11:29:38.058Z,1017.75
2022-10-31T11:30:38.565Z,1017.76
2022-10-31T11:31:39.066Z,1017.75
2022-10-31T11:32:39.572Z,1017.74
2022-10-31T11:33:40.111Z,1017.74
2022-10-31T11:34:40.613Z,1017.74
2022-10-31T11:35:41.138Z,1017.73
2022-10-31T11:36:41.654Z,1017.72
2022-10-31T11:37:42.160Z,1017.71
2022-10-31T11:38:42.701Z,1017.70
2022-10-31T11:39:43.199Z,1017.69
2022-10-31T11:40:43.705Z,1017.69
2022-10-31T11:41:44.242Z,1017.69
2022-10-31T11:42:44.749Z,1017.69
2022-10-31T11:43:45.281Z,1017.69
2022-10-31T11:44:45.778Z,1017.69
2022-10-31T11:45:46.279Z,1017.70
2022-10-31T11:46:46.783Z,1017.71
2022-10-31T11:47:47.377Z,1017.72
2022-10-31T11:48:47.978Z,1017.72
2022-10-31T11:49:48.492Z,1017.72
2022-10-31T11:50:49.001Z,1017.73
2022-10-31T11:51:49.501Z,1017.72
2022-10-31T11:52:50.073Z,1017.72
2022-10-31T11:53:50.639Z,1017.71
2022-10-31T11:54:51.136Z,1017.71
2022-10-31T11:55:51.632Z,1017.70
2022-10-31T11:56:52.164Z,1017.70
2022-10-31T11:57:52.662Z,1017.68
2022-10-31T11:58:53.246Z,1017.67
2022-10-31T11:59:53.749Z,1017.67
2022-10-31T12:00:54.254Z,1017.66
2022-10-31T12:01:54.902Z,1017.65
2022-10-31T12:02:55.559Z,1017.64
2022-10-31T12:03:56.143Z,1017.63
2022-10-31T12:04:56.644Z,1017.63
2022-10-31T12:05:57.154Z,1017.64
2022-10-31T12:06:57.684Z,1017.65
2022-10-31T12:08:03.483Z,1017.64
2022-10-31T12:08:59.100Z,1017.65
2022-10-31T12:09:59.617Z,1017.64
2022-10-31T12:11:00.122Z,1017.64
2022-10-31T12:12:00.650Z,1017.63
2022-10-31T12:13:01.507Z,1017.62
2022-10-31T12:14:04.106Z,1017.62
2022-10-31T12:15:02.861Z,1017.61
2022-10-31T12:16:03.359Z,1017.60
2022-10-31T12:17:03.861Z,1017.59
2022-10-31T12:18:04.364Z,1017.59
2022-10-31T12:19:04.893Z,1017.58
2022-10-31T12:20:05.396Z,1017.58
2022-10-31T12:21:05.902Z,1017.58
2022-10-31T12:22:06.413Z,1017.57
2022-10-31T12:23:06.940Z,1017.57
2022-10-31T12:24:07.534Z,1017.58